createdAt,value
2023-01-03T00:08:56.547Z,3.20
2023-01-03T00:09:43.018Z,3.60
2023-01-03T00:11:48.365Z,5.03
2023-01-03T00:16:53.473Z,4.88
2023-01-03T00:19:23.110Z,5.40
2023-01-03T00:22:03.022Z,5.35
2023-01-03T00:28:59.007Z,5.13
2023-01-03T00:32:59.064Z,4.60
2023-01-03T00:53:02.716Z,7.00
2023-01-03T00:59:19.565Z,7.05
2023-01-03T01:02:09.262Z,6.50
2023-01-03T01:33:50.058Z,4.93
2023-01-03T01:42:30.534Z,4.93
2023-01-03T01:45:24.189Z,3.33
2023-01-03T01:48:24.050Z,3.55
2023-01-03T01:51:27.683Z,4.03
2023-01-03T01:58:05.104Z,3.25
2023-01-03T02:04:26.915Z,3.00
2023-01-03T02:07:06.792Z,2.70
2023-01-03T02:10:31.128Z,2.95
2023-01-03T02:13:29.794Z,4.30
2023-01-03T02:22:43.224Z,3.22
2023-01-03T02:25:29.813Z,2.55
2023-01-03T02:28:09.215Z,3.28
2023-01-03T02:31:00.574Z,3.38
2023-01-03T02:33:34.421Z,2.90
2023-01-03T02:36:23.239Z,2.97
2023-01-03T02:39:04.336Z,2.25
2023-01-03T02:42:20.614Z,1.77
2023-01-03T02:45:08.108Z,1.70
2023-01-03T02:48:00.936Z,1.80
2023-01-03T02:50:36.894Z,1.10
2023-01-03T02:53:10.600Z,1.20
2023-01-03T02:55:40.420Z,1.40
2023-01-03T02:58:18.013Z,1.40
2023-01-03T03:00:51.668Z,1.15
2023-01-03T03:03:28.399Z,1.20
2023-01-03T03:06:27.647Z,1.10
2023-01-03T03:08:56.711Z,1.35
2023-01-03T03:11:45.177Z,1.17
2023-01-03T03:14:28.966Z,1.50
2023-01-03T03:17:01.524Z,1.10
2023-01-03T03:19:53.808Z,1.30
2023-01-03T03:22:53.646Z,1.63
2023-01-03T03:25:32.646Z,1.38
2023-01-03T03:28:30.543Z,0.90
2023-01-03T03:31:03.937Z,1.17
2023-01-03T03:33:36.813Z,1.70
2023-01-03T03:36:37.754Z,1.48
2023-01-03T03:39:29.245Z,3.40
2023-01-03T03:42:37.737Z,1.75
2023-01-03T03:45:17.297Z,1.20
2023-01-03T03:48:06.394Z,1.30
2023-01-03T03:50:55.519Z,3.67
2023-01-03T03:53:29.830Z,4.03
2023-01-03T03:56:16.034Z,2.92
2023-01-03T03:58:50.042Z,3.00
2023-01-03T04:01:21.909Z,3.05
2023-01-03T04:03:53.465Z,3.35
2023-01-03T04:08:55.647Z,2.42
2023-01-03T04:11:23.997Z,1.42
2023-01-03T04:13:52.285Z,1.58
2023-01-03T04:16:20.602Z,1.25
2023-01-03T04:18:48.959Z,2.30
2023-01-03T04:21:20.773Z,1.10
2023-01-03T04:23:49.601Z,1.08
2023-01-03T04:26:18.879Z,1.20
2023-01-03T04:28:47.220Z,1.20
2023-01-03T04:31:15.679Z,1.30
2023-01-03T04:33:44.197Z,1.23
2023-01-03T04:36:12.458Z,1.40
2023-01-03T04:38:40.789Z,1.20
2023-01-03T04:41:10.106Z,1.33
2023-01-03T04:43:56.864Z,1.20
2023-01-03T04:46:25.323Z,1.40
2023-01-03T04:48:53.669Z,1.10
2023-01-03T04:51:22.030Z,1.58
2023-01-03T04:53:50.349Z,1.30
2023-01-03T04:56:18.875Z,1.20
2023-01-03T04:58:47.323Z,1.00
2023-01-03T05:01:15.718Z,1.05
2023-01-03T05:03:44.110Z,1.33
2023-01-03T05:06:13.304Z,1.20
2023-01-03T05:08:42.092Z,0.80
2023-01-03T05:11:11.027Z,0.88
2023-01-03T05:13:39.348Z,0.73
2023-01-03T05:16:10.695Z,0.90
2023-01-03T05:18:39.649Z,1.00
2023-01-03T05:21:44.446Z,1.00
2023-01-03T05:24:32.135Z,0.90
2023-01-03T05:27:03.980Z,1.27
2023-01-03T05:29:35.887Z,1.00
2023-01-03T05:32:04.326Z,1.10
2023-01-03T05:34:32.560Z,1.25
2023-01-03T05:37:00.820Z,0.90
2023-01-03T05:39:29.116Z,1.00
2023-01-03T05:42:00.475Z,0.90
2023-01-03T05:44:33.888Z,1.05
2023-01-03T05:47:04.276Z,0.82
2023-01-03T05:49:32.698Z,1.13
2023-01-03T05:52:00.988Z,1.00
2023-01-03T05:54:29.254Z,1.10
2023-01-03T05:56:57.468Z,1.10
2023-01-03T05:59:27.811Z,0.80
2023-01-03T06:01:56.217Z,0.93
2023-01-03T06:04:24.770Z,0.93
2023-01-03T06:06:53.343Z,1.48
2023-01-03T06:09:21.939Z,0.80
2023-01-03T06:11:50.199Z,1.50
2023-01-03T06:14:20.501Z,0.70
2023-01-03T06:17:07.222Z,1.00
2023-01-03T06:19:35.645Z,1.20
2023-01-03T06:22:10.211Z,0.90
2023-01-03T06:24:39.268Z,0.65
2023-01-03T06:27:07.519Z,1.05
2023-01-03T06:29:35.797Z,1.30
2023-01-03T06:32:09.142Z,1.00
2023-01-03T06:34:38.699Z,1.33
2023-01-03T06:37:07.060Z,1.42
2023-01-03T06:39:35.357Z,0.75
2023-01-03T06:42:23.495Z,1.15
2023-01-03T06:45:10.384Z,1.15
2023-01-03T06:47:57.702Z,0.90
2023-01-03T06:50:44.229Z,2.20
2023-01-03T06:53:18.079Z,1.10
2023-01-03T06:55:54.409Z,0.80
2023-01-03T06:58:24.861Z,1.15
2023-01-03T07:00:54.235Z,0.80
2023-01-03T07:03:23.030Z,1.13
2023-01-03T07:05:51.443Z,0.85
2023-01-03T07:08:19.792Z,0.70
2023-01-03T07:10:48.850Z,1.27
2023-01-03T07:13:35.287Z,0.73
2023-01-03T07:16:03.598Z,0.88
2023-01-03T07:18:33.247Z,0.82
2023-01-03T07:21:01.502Z,2.10
2023-01-03T07:23:29.703Z,0.82
2023-01-03T07:25:58.079Z,0.70
2023-01-03T07:28:26.478Z,1.00
2023-01-03T07:31:00.663Z,0.60
2023-01-03T07:33:29.034Z,1.67
2023-01-03T07:36:09.485Z,0.93
2023-01-03T07:38:41.471Z,0.73
2023-01-03T07:41:10.038Z,1.75
2023-01-03T07:43:41.533Z,2.35
2023-01-03T07:48:55.079Z,1.63
2023-01-03T07:51:24.213Z,0.98
2023-01-03T07:53:54.199Z,1.60
2023-01-03T07:56:25.893Z,1.55
2023-01-03T07:58:54.426Z,0.70
2023-01-03T08:01:24.801Z,0.65
2023-01-03T08:03:53.624Z,0.85
2023-01-03T08:06:23.884Z,0.82
2023-01-03T08:09:11.673Z,0.80
2023-01-03T08:12:06.922Z,0.70
2023-01-03T08:14:35.153Z,0.77
2023-01-03T08:17:03.385Z,2.08
2023-01-03T08:19:31.630Z,1.13
2023-01-03T08:21:59.853Z,1.17
2023-01-03T08:24:28.063Z,0.70
2023-01-03T08:26:56.318Z,1.48
2023-01-03T08:29:24.531Z,3.75
2023-01-03T08:31:57.097Z,1.95
2023-01-03T08:34:30.079Z,4.30
2023-01-03T08:37:03.259Z,3.70
2023-01-03T08:39:38.456Z,2.15
2023-01-03T08:42:09.615Z,3.60
2023-01-03T08:44:39.707Z,1.40
2023-01-03T08:47:09.992Z,1.52
2023-01-03T08:49:39.242Z,2.10
2023-01-03T08:52:07.499Z,2.03
2023-01-03T08:54:36.190Z,2.13
2023-01-03T08:57:04.581Z,3.15
2023-01-03T08:59:33.077Z,1.63
2023-01-03T09:02:02.909Z,2.65
2023-01-03T09:04:31.321Z,1.38
2023-01-03T09:06:59.571Z,1.90
2023-01-03T09:09:27.847Z,2.10
2023-01-03T09:11:56.253Z,2.40
2023-01-03T09:14:25.232Z,1.45
2023-01-03T09:16:53.529Z,2.78
2023-01-03T09:19:21.857Z,1.70
2023-01-03T09:21:50.161Z,1.55
2023-01-03T09:24:18.484Z,2.17
2023-01-03T09:26:52.394Z,2.22
2023-01-03T09:29:22.579Z,1.83
2023-01-03T09:31:51.515Z,1.67
2023-01-03T09:34:20.333Z,2.10
2023-01-03T09:36:48.643Z,2.00
2023-01-03T09:39:16.950Z,1.90
2023-01-03T09:41:45.625Z,1.92
2023-01-03T09:44:13.922Z,1.75
2023-01-03T09:46:42.348Z,1.77
2023-01-03T09:49:15.321Z,1.00
2023-01-03T09:52:05.695Z,1.50
2023-01-03T09:54:59.742Z,1.13
2023-01-03T09:57:54.209Z,1.50
2023-01-03T10:01:07.317Z,1.30
2023-01-03T10:03:53.015Z,1.10
2023-01-03T10:06:44.638Z,1.20
2023-01-03T10:09:24.067Z,1.30
2023-01-03T10:12:14.428Z,1.38
2023-01-03T10:15:14.534Z,1.55
2023-01-03T10:17:57.633Z,1.58
2023-01-03T10:20:53.428Z,0.98
2023-01-03T10:23:22.573Z,1.10
2023-01-03T10:25:50.910Z,1.00
2023-01-03T10:28:34.792Z,0.85
2023-01-03T10:31:30.232Z,1.40
2023-01-03T10:33:58.577Z,1.17
2023-01-03T10:36:26.888Z,1.35
2023-01-03T10:39:09.699Z,1.50
2023-01-03T10:41:45.019Z,1.00
2023-01-03T10:44:26.661Z,1.42
2023-01-03T10:46:56.905Z,1.40
2023-01-03T10:49:29.751Z,1.02
2023-01-03T10:52:20.695Z,1.30
2023-01-03T10:54:54.421Z,1.45
2023-01-03T10:57:41.240Z,1.70
2023-01-03T11:00:32.697Z,1.30
2023-01-03T11:03:24.700Z,1.20
2023-01-03T11:05:58.915Z,1.50
2023-01-03T11:08:57.077Z,1.00
2023-01-03T11:11:30.408Z,1.20
2023-01-03T11:14:10.750Z,0.95
2023-01-03T11:16:39.278Z,0.90
2023-01-03T11:19:08.596Z,0.90
2023-01-03T11:22:03.853Z,1.10
2023-01-03T11:24:41.351Z,1.30
2023-01-03T11:27:12.242Z,1.00
2023-01-03T11:29:49.601Z,1.10
2023-01-03T11:32:50.298Z,1.10
2023-01-03T11:36:07.179Z,1.20
2023-01-03T11:38:48.245Z,1.40
2023-01-03T11:41:44.059Z,1.23
2023-01-03T11:44:49.379Z,1.25
2023-01-03T11:47:35.314Z,1.20
2023-01-03T11:50:31.918Z,1.20
2023-01-03T11:53:45.107Z,1.00
2023-01-03T11:56:37.321Z,1.17
2023-01-03T11:59:37.409Z,1.00
2023-01-03T12:02:30.275Z,0.95
2023-01-03T12:05:09.020Z,0.90
2023-01-03T12:07:47.736Z,1.10
2023-01-03T12:10:24.886Z,0.88
2023-01-03T12:13:29.378Z,0.90
2023-01-03T12:16:13.370Z,1.10
2023-01-03T12:19:05.661Z,0.70
2023-01-03T12:21:42.090Z,0.68
2023-01-03T12:24:35.347Z,1.00
2023-01-03T12:27:43.571Z,1.10
2023-01-03T12:30:32.763Z,0.60
2023-01-03T12:33:33.409Z,1.10
2023-01-03T12:36:06.924Z,0.70
2023-01-03T12:38:49.368Z,0.63
2023-01-03T12:41:38.109Z,0.93
2023-01-03T12:44:23.970Z,0.68
2023-01-03T12:46:56.369Z,0.70
2023-01-03T12:49:39.131Z,0.93
2023-01-03T12:52:17.032Z,0.88
2023-01-03T12:55:16.336Z,1.05
2023-01-03T12:58:04.743Z,0.70
2023-01-03T13:00:32.932Z,0.93
2023-01-03T13:03:08.463Z,0.60
2023-01-03T13:05:40.149Z,0.70
2023-01-03T13:08:33.260Z,0.47
2023-01-03T13:11:07.493Z,0.80
2023-01-03T13:13:36.968Z,1.00
2023-01-03T13:16:46.132Z,0.70
2023-01-03T13:19:23.514Z,0.80
2023-01-03T13:21:54.907Z,1.10
2023-01-03T13:24:46.168Z,1.60
2023-01-03T13:27:21.337Z,1.95
2023-01-03T13:29:58.219Z,1.90
2023-01-03T13:32:34.640Z,2.00
2023-01-03T13:35:04.614Z,2.20
2023-01-03T13:37:47.899Z,2.50
2023-01-03T13:40:39.219Z,2.88
2023-01-03T13:43:23.735Z,3.40
2023-01-03T13:45:54.937Z,3.22
2023-01-03T13:49:04.698Z,3.97
2023-01-03T13:51:55.174Z,4.43
2023-01-03T13:54:23.756Z,4.45
2023-01-03T13:56:53.725Z,4.03
2023-01-03T13:59:48.706Z,4.28
2023-01-03T14:02:36.496Z,4.30
2023-01-03T14:05:23.518Z,3.75
2023-01-03T14:08:33.380Z,4.60
2023-01-03T14:11:43.894Z,4.60
2023-01-03T14:14:16.542Z,5.82
2023-01-03T14:16:52.838Z,7.07
2023-01-03T14:23:59.756Z,6.40
2023-01-03T14:26:29.719Z,7.15
2023-01-03T14:29:24.389Z,7.43
2023-01-03T14:32:05.283Z,5.93
2023-01-03T14:34:45.320Z,6.10
2023-01-03T14:37:18.819Z,5.65
2023-01-03T14:41:06.596Z,6.60
2023-01-03T14:44:09.527Z,5.38
2023-01-03T14:46:40.026Z,4.70
2023-01-03T14:49:21.816Z,4.68
2023-01-03T14:54:23.229Z,4.22
2023-01-03T15:05:02.258Z,4.13
2023-01-03T15:07:42.879Z,4.25
2023-01-03T15:10:13.987Z,3.97
2023-01-03T15:12:52.465Z,3.83
2023-01-03T15:15:28.349Z,3.80
2023-01-03T15:18:04.225Z,3.90
2023-01-03T15:32:04.955Z,4.60
2023-01-03T15:34:34.820Z,3.80
2023-01-03T15:37:13.167Z,4.00
2023-01-03T15:39:47.887Z,4.65
2023-01-03T15:46:10.014Z,3.83
2023-01-03T15:48:38.710Z,4.47
2023-01-03T15:51:07.729Z,4.32
2023-01-03T15:53:44.540Z,3.92
2023-01-03T15:56:22.973Z,3.58
2023-01-03T15:58:58.062Z,3.33
2023-01-03T16:01:26.784Z,3.72
2023-01-03T16:03:56.465Z,3.85
2023-01-03T16:06:24.953Z,3.58
2023-01-03T16:08:53.772Z,5.20
2023-01-03T16:11:33.289Z,5.32
2023-01-03T16:14:05.727Z,5.38
2023-01-03T16:16:39.383Z,4.88
2023-01-03T16:19:08.880Z,5.80
2023-01-03T16:21:37.327Z,5.13
2023-01-03T16:24:05.827Z,5.80
2023-01-03T16:26:34.178Z,7.35
2023-01-03T16:29:02.537Z,6.55
2023-01-03T16:31:36.342Z,6.35
2023-01-03T16:34:07.115Z,7.38
2023-01-03T16:36:38.547Z,8.07
2023-01-03T16:39:13.528Z,8.90
2023-01-03T16:41:42.946Z,7.15
2023-01-03T16:44:11.453Z,7.78
2023-01-03T16:46:40.804Z,7.18
2023-01-03T16:49:11.372Z,7.93
2023-01-03T16:52:00.104Z,8.38
2023-01-03T16:54:29.041Z,8.55
2023-01-03T16:56:57.661Z,8.63
2023-01-03T16:59:25.992Z,8.93
2023-01-03T17:02:03.483Z,8.23
2023-01-03T17:04:32.087Z,9.30
2023-01-03T17:07:04.792Z,8.38
2023-01-03T17:09:39.573Z,9.40
2023-01-03T17:12:08.024Z,8.65
2023-01-03T17:14:37.985Z,9.55
2023-01-03T17:17:11.026Z,8.02
2023-01-03T17:20:03.522Z,8.45
2023-01-03T17:22:32.586Z,9.07
2023-01-03T17:25:08.060Z,7.75
2023-01-03T17:31:33.117Z,7.25
2023-01-03T17:34:23.934Z,7.60
2023-01-03T17:36:56.290Z,7.13
2023-01-03T17:42:50.935Z,5.85
2023-01-03T17:45:44.765Z,5.97
2023-01-03T17:48:39.213Z,5.20
2023-01-03T17:51:07.976Z,4.90
2023-01-03T17:53:36.227Z,3.80
2023-01-03T17:56:05.113Z,4.30
2023-01-03T18:01:04.804Z,2.35
2023-01-03T18:03:33.520Z,2.33
2023-01-03T18:06:07.663Z,1.55
2023-01-03T18:08:36.350Z,1.88
2023-01-03T18:11:08.538Z,1.58
2023-01-03T18:13:39.017Z,1.60
2023-01-03T18:16:40.157Z,1.70
2023-01-03T18:19:44.845Z,1.87
2023-01-03T18:25:25.578Z,2.10
2023-01-03T18:27:57.318Z,2.35
2023-01-03T18:30:53.732Z,2.58
2023-01-03T18:33:31.786Z,2.17
2023-01-03T18:38:47.896Z,2.15
2023-01-03T18:41:27.594Z,2.55
2023-01-03T18:43:56.548Z,2.88
2023-01-03T18:46:39.357Z,4.15
2023-01-03T18:49:35.125Z,3.20
2023-01-03T18:52:03.636Z,3.20
2023-01-03T18:54:33.374Z,3.22
2023-01-03T18:57:01.872Z,3.30
2023-01-03T18:59:30.699Z,3.25
2023-01-03T19:02:02.163Z,3.17
2023-01-03T19:06:59.837Z,2.17
2023-01-03T19:09:30.458Z,2.50
2023-01-03T19:12:02.093Z,2.90
2023-01-03T19:14:30.910Z,2.40
2023-01-03T19:16:59.660Z,2.28
2023-01-03T19:19:31.006Z,2.28
2023-01-03T19:22:00.061Z,2.03
2023-01-03T19:24:39.250Z,2.28
2023-01-03T19:27:23.298Z,1.85
2023-01-03T19:29:55.724Z,1.85
2023-01-03T19:32:31.098Z,1.63
2023-01-03T19:35:25.036Z,2.22
2023-01-03T19:37:53.938Z,2.20
2023-01-03T19:40:30.163Z,1.60
2023-01-03T19:43:05.631Z,1.90
2023-01-03T19:45:35.408Z,1.92
2023-01-03T19:48:18.099Z,1.60
2023-01-03T19:50:47.046Z,1.80
2023-01-03T19:53:15.747Z,1.38
2023-01-03T19:56:35.284Z,1.70
2023-01-03T19:59:06.585Z,1.50
2023-01-03T20:01:58.275Z,1.90
2023-01-03T20:11:43.536Z,2.22
2023-01-03T20:16:48.583Z,2.28
2023-01-03T20:19:22.725Z,2.50
2023-01-03T20:21:53.037Z,2.95
2023-01-03T20:25:36.158Z,2.55
2023-01-03T20:30:40.297Z,2.50
2023-01-03T20:33:08.594Z,2.53
2023-01-03T20:36:09.781Z,2.42
2023-01-03T20:38:28.477Z,3.03
2023-01-03T20:40:57.675Z,2.65
2023-01-03T20:43:26.265Z,3.17
2023-01-03T20:45:58.269Z,3.22
2023-01-03T20:48:29.970Z,2.83
2023-01-03T20:50:58.270Z,2.80
2023-01-03T20:53:28.121Z,2.60
2023-01-03T20:55:56.886Z,2.50
2023-01-03T20:58:26.431Z,2.97
2023-01-03T21:01:04.635Z,2.85
2023-01-03T21:03:34.846Z,2.40
2023-01-03T21:06:05.360Z,2.15
2023-01-03T21:08:55.008Z,2.47
2023-01-03T21:11:29.105Z,2.50
2023-01-03T21:13:59.193Z,2.30
2023-01-03T21:16:42.948Z,2.75
2023-01-03T21:19:21.606Z,3.63
2023-01-03T21:21:55.527Z,3.75
2023-01-03T21:24:25.333Z,4.10
2023-01-03T21:26:53.782Z,4.35
2023-01-03T21:29:22.862Z,4.68
2023-01-03T21:31:51.795Z,4.40
2023-01-03T21:34:22.164Z,3.75
2023-01-03T21:36:50.456Z,5.40
2023-01-03T21:39:18.800Z,4.25
2023-01-03T21:42:05.972Z,3.95
2023-01-03T21:44:34.383Z,3.75
2023-01-03T21:47:02.666Z,4.13
2023-01-03T21:49:30.964Z,4.43
2023-01-03T21:51:59.205Z,4.07
2023-01-03T21:54:27.593Z,3.90
2023-01-03T21:56:56.132Z,3.60
2023-01-03T21:59:24.497Z,3.72
2023-01-03T22:02:12.794Z,4.18
2023-01-03T22:04:41.285Z,3.67
2023-01-03T22:07:09.557Z,3.60
2023-01-03T22:10:12.738Z,4.50
2023-01-03T22:12:48.368Z,4.28
2023-01-03T22:15:16.957Z,4.10
2023-01-03T22:17:45.856Z,4.60
2023-01-03T22:20:16.369Z,4.30
2023-01-03T22:22:45.962Z,4.32
2023-01-03T22:25:21.052Z,4.60
2023-01-03T22:27:49.852Z,5.43
2023-01-03T22:30:21.816Z,4.85
2023-01-03T22:32:50.737Z,5.43
2023-01-03T22:35:19.656Z,5.97
2023-01-03T22:37:50.775Z,4.70
2023-01-03T22:40:19.269Z,5.55
2023-01-03T22:42:47.492Z,4.95
2023-01-03T22:45:16.485Z,4.32
2023-01-03T22:47:44.743Z,5.72
2023-01-03T22:50:18.247Z,5.03
2023-01-03T22:52:46.513Z,5.50
2023-01-03T22:55:15.381Z,5.40
2023-01-03T22:57:43.766Z,6.00
2023-01-03T23:00:13.119Z,6.38
2023-01-03T23:02:42.266Z,6.50
2023-01-03T23:05:10.959Z,6.28
2023-01-03T23:07:45.821Z,6.60
2023-01-03T23:10:14.486Z,6.15
2023-01-03T23:13:11.661Z,6.60
2023-01-03T23:15:39.943Z,5.68
2023-01-03T23:18:08.265Z,5.90
2023-01-03T23:20:37.057Z,6.20
2023-01-03T23:23:06.551Z,6.50
2023-01-03T23:25:37.540Z,5.75
2023-01-03T23:28:05.992Z,8.38
2023-01-03T23:30:34.316Z,6.90
2023-01-03T23:33:02.748Z,7.47
2023-01-03T23:35:34.497Z,7.22
2023-01-03T23:38:05.050Z,7.07
2023-01-03T23:40:33.429Z,7.37
2023-01-03T23:43:01.819Z,7.25
2023-01-03T23:45:30.305Z,6.85
2023-01-03T23:47:58.864Z,7.68
2023-01-03T23:50:55.841Z,7.45
2023-01-03T23:53:41.106Z,7.57
2023-01-03T23:56:21.037Z,8.55
2023-01-03T23:58:49.530Z,8.00
